Time;durP1;ratioP1;P1;durP2;ratioP2;P2;SDS_P1;SDS_P2;PMS_P1;PMS_P2;Temp;Humidity;BMP_temperature;BMP_pressure;BME280_temperature;BME280_humidity;BME280_pressure;Samples;Min_cycle;Max_cycle;Signal;HPM_P1;HPM_P2
2022/01/17 00:00:59;;;;;;;14.00;7.90;;;;;;;2.24;96.89;99475.97;4094790;28;20041;-71
2022/01/17 00:03:00;;;;;;;14.10;9.45;;;;;;;2.20;96.66;99483.13;4095364;28;20472;-71
2022/01/17 00:05:00;;;;;;;10.50;7.82;;;;;;;2.24;96.31;99468.56;4091892;28;20050;-71
2022/01/17 00:07:01;;;;;;;13.23;8.73;;;;;;;2.22;96.19;99472.69;4087425;28;20540;-71
2022/01/17 00:09:01;;;;;;;13.15;7.50;;;;;;;2.21;96.35;99471.88;4087103;28;20337;-71
2022/01/17 00:11:01;;;;;;;11.88;8.07;;;;;;;2.21;96.70;99471.06;4092364;28;20077;-71
2022/01/17 00:13:02;;;;;;;12.60;7.18;;;;;;;2.19;96.89;99468.66;4087893;28;20388;-71
2022/01/17 00:15:13;;;;;;;12.10;7.60;;;;;;;2.22;96.63;99467.22;4092147;28;20051;-71
2022/01/17 00:19:34;;;;;;;11.95;7.15;;;;;;;2.15;96.82;99456.72;4086776;28;20070;-71
2022/01/17 00:21:35;;;;;;;10.90;6.53;;;;;;;2.20;96.48;99456.63;4090788;28;20142;-72
2022/01/17 00:23:35;;;;;;;9.90;6.25;;;;;;;2.13;97.00;99458.91;4089937;28;20130;-72
2022/01/17 00:25:35;;;;;;;10.13;6.53;;;;;;;2.13;97.07;99458.91;4089179;28;20044;-72
2022/01/17 00:27:36;;;;;;;11.18;6.75;;;;;;;2.16;96.80;99446.59;4089838;28;20050;-71
2022/01/17 00:29:36;;;;;;;10.50;6.35;;;;;;;2.16;96.40;99474.72;4093122;28;20078;-72
2022/01/17 00:31:37;;;;;;;9.18;6.53;;;;;;;2.16;96.35;99482.09;4090247;28;20453;-71
2022/01/17 00:33:37;;;;;;;9.20;6.00;;;;;;;2.21;96.09;99482.00;4090312;28;20042;-71
2022/01/17 00:35:38;;;;;;;10.13;5.85;;;;;;;2.28;95.00;99467.97;4089883;28;20548;-71
2022/01/17 00:37:39;;;;;;;8.82;5.63;;;;;;;2.33;94.99;99468.69;4092962;28;20074;-72
2022/01/17 00:39:39;;;;;;;9.73;5.85;;;;;;;2.36;94.85;99464.56;4098869;28;20203;-72
2022/01/17 00:41:39;;;;;;;7.10;5.28;;;;;;;2.37;95.41;99469.72;4101107;28;20042;-72
2022/01/17 00:43:40;;;;;;;8.63;5.57;;;;;;;2.32;95.65;99482.63;4093625;28;20622;-72
2022/01/17 00:45:43;;;;;;;7.75;5.30;;;;;;;2.25;96.56;99486.59;4090855;28;20047;-72
2022/01/17 00:47:44;;;;;;;9.73;5.78;;;;;;;2.23;96.79;99482.50;4088705;28;20491;-72
2022/01/17 00:49:44;;;;;;;8.60;5.35;;;;;;;2.22;96.97;99486.34;4091060;28;20047;-71
2022/01/17 00:51:46;;;;;;;8.30;5.53;;;;;;;2.19;97.45;99495.94;4094445;28;20146;-71
2022/01/17 00:53:46;;;;;;;9.00;5.25;;;;;;;2.22;97.61;99498.06;4089150;28;20126;-71
2022/01/17 00:55:46;;;;;;;9.02;5.82;;;;;;;2.27;97.00;99494.47;4090227;28;20121;-71
2022/01/17 00:57:47;;;;;;;8.82;5.90;;;;;;;2.28;97.16;99498.00;4092702;28;20475;-71
2022/01/17 00:59:47;;;;;;;8.73;5.70;;;;;;;2.28;97.12;99506.19;4089821;28;20055;-71
2022/01/17 01:01:48;;;;;;;8.52;5.47;;;;;;;2.30;97.08;99503.97;4089100;28;20047;-71
2022/01/17 01:03:48;;;;;;;10.35;6.07;;;;;;;2.29;96.99;99516.81;4089598;28;20077;-71
2022/01/17 01:05:48;;;;;;;7.82;5.18;;;;;;;2.39;96.18;99518.56;4091478;28;20050;-71
2022/01/17 01:07:50;;;;;;;7.80;5.50;;;;;;;2.42;95.75;99524.25;4088701;28;20100;-71
2022/01/17 01:10:03;;;;;;;10.05;6.15;;;;;;;2.42;96.33;99535.19;4095018;28;20065;-71
2022/01/17 01:12:03;;;;;;;12.20;7.05;;;;;;;2.40;96.30;99523.75;4089082;28;20105;-71
2022/01/17 01:14:04;;;;;;;11.68;7.10;;;;;;;2.38;96.53;99508.75;4089859;28;20436;-71
2022/01/17 01:18:15;;;;;;;11.93;6.93;;;;;;;2.27;97.56;99507.31;4090995;28;20039;-71
2022/01/17 01:29:34;;;;;;;10.85;6.28;;;;;;;2.45;97.14;99509.19;4100371;28;20050;-71
2022/01/17 01:31:47;;;;;;;9.35;6.07;;;;;;;2.43;97.33;99516.88;4090180;28;20043;-71
2022/01/17 01:33:54;;;;;;;;;;;;;;;2.40;97.48;99496.44;4091752;28;20047;-71
2022/01/17 01:36:29;;;;;;;8.85;5.68;;;;;;;2.33;98.06;99489.75;4092331;28;20234;-71
2022/01/17 01:38:22;;;;;;;8.20;5.07;;;;;;;2.34;97.72;99486.72;4091197;28;20097;-71
2022/01/17 01:40:22;;;;;;;8.88;5.40;;;;;;;2.43;97.54;99506.75;4095971;28;20039;-71
2022/01/17 01:42:24;;;;;;;10.30;5.95;;;;;;;2.46;97.47;99502.59;4089036;28;20050;-71
2022/01/17 01:44:26;;;;;;;9.05;5.75;;;;;;;2.48;97.43;99517.59;4089351;28;20043;-71
2022/01/17 01:46:26;;;;;;;7.75;5.43;;;;;;;2.44;98.11;99515.75;4094381;28;20189;-71
2022/01/17 01:48:32;;;;;;;8.80;5.57;;;;;;;2.42;97.87;99499.69;4088090;28;20594;-71
2022/01/17 01:50:32;;;;;;;7.97;5.45;;;;;;;2.43;98.12;99501.28;4089793;28;20189;-71
2022/01/17 01:52:32;;;;;;;6.82;5.15;;;;;;;2.45;98.10;99501.81;4089587;28;20118;-71
2022/01/17 01:54:32;;;;;;;6.38;4.75;;;;;;;2.43;97.89;99505.94;4090049;28;20152;-71
2022/01/17 01:56:36;;;;;;;7.70;4.97;;;;;;;2.43;97.68;99508.69;4088886;28;20138;-71
2022/01/17 01:58:39;;;;;;;6.90;5.18;;;;;;;2.49;97.59;99485.63;4088497;28;20444;-71
2022/01/17 02:00:39;;;;;;;7.78;4.90;;;;;;;2.51;97.53;99475.22;4088180;28;20052;-71
2022/01/17 02:02:40;;;;;;;7.40;5.20;;;;;;;2.51;97.59;99469.75;4088743;28;20164;-72
2022/01/17 02:04:40;;;;;;;7.55;4.70;;;;;;;2.53;97.97;99481.19;4087732;28;20098;-72
2022/01/17 02:06:42;;;;;;;5.72;4.55;;;;;;;2.53;97.35;99468.31;4089890;28;20043;-72
2022/01/17 02:08:42;;;;;;;8.50;5.38;;;;;;;2.58;96.98;99496.69;4089363;28;20079;-72
2022/01/17 02:10:43;;;;;;;6.90;4.95;;;;;;;2.66;96.60;99487.78;4088556;28;20047;-72
2022/01/17 02:12:43;;;;;;;7.55;4.70;;;;;;;2.71;96.13;99471.28;4089024;28;20130;-71
2022/01/17 02:14:43;;;;;;;8.23;4.80;;;;;;;2.69;95.93;99454.38;4088150;28;20051;-71
2022/01/17 02:16:47;;;;;;;7.38;5.28;;;;;;;2.63;96.79;99461.88;4087932;28;20097;-71
2022/01/17 02:18:48;;;;;;;6.22;4.32;;;;;;;2.65;96.02;99453.34;4088283;28;20130;-71
2022/01/17 02:21:10;;;;;;;7.20;4.50;;;;;;;2.66;95.85;99464.00;4093164;28;20158;-71
2022/01/17 02:23:10;;;;;;;5.55;4.07;;;;;;;2.65;95.83;99453.34;4088961;28;20271;-71
2022/01/17 02:25:10;;;;;;;6.20;4.35;;;;;;;2.66;95.86;99455.81;4089892;28;20096;-71
2022/01/17 02:27:10;;;;;;;5.95;3.85;;;;;;;2.71;95.10;99465.81;4087642;28;20162;-71
2022/01/17 02:29:11;;;;;;;7.97;4.53;;;;;;;2.62;95.32;99452.06;4088786;28;20055;-71
2022/01/17 02:31:11;;;;;;;6.22;4.20;;;;;;;2.67;95.46;99454.69;4094241;28;20043;-71
2022/01/17 02:33:12;;;;;;;7.50;4.70;;;;;;;2.63;95.87;99472.78;4091976;28;20117;-71
2022/01/17 02:35:17;;;;;;;8.10;5.22;;;;;;;2.62;96.05;99487.56;4088517;28;20054;-71
2022/01/17 02:37:18;;;;;;;8.68;5.40;;;;;;;2.61;96.13;99485.94;4090898;28;20047;-71
2022/01/17 02:39:19;;;;;;;10.65;6.07;;;;;;;2.65;96.54;99483.41;4089247;28;20442;-71
2022/01/17 02:41:19;;;;;;;10.05;5.78;;;;;;;2.68;96.62;99480.91;4088294;28;20083;-72
2022/01/17 02:43:22;;;;;;;8.43;5.70;;;;;;;2.66;97.28;99485.06;4087552;28;20082;-72
2022/01/17 02:47:31;;;;;;;9.55;5.88;;;;;;;2.60;97.26;99498.00;4088755;28;20052;-72
2022/01/17 02:49:31;;;;;;;8.52;5.78;;;;;;;2.66;96.99;99483.13;4087333;28;20063;-72
2022/01/17 02:51:33;;;;;;;8.32;5.25;;;;;;;2.60;97.58;99467.13;4087402;28;20555;-71
2022/01/17 02:53:34;;;;;;;12.55;7.75;;;;;;;2.58;97.97;99455.69;4093031;28;20065;-71
2022/01/17 02:55:35;;;;;;;10.93;7.30;;;;;;;2.55;98.20;99457.09;4088014;28;20093;-71
2022/01/17 02:57:36;;;;;;;9.68;5.78;;;;;;;2.57;98.57;99467.75;4087688;28;20052;-71
2022/01/17 02:59:36;;;;;;;10.25;6.40;;;;;;;2.52;99.15;99458.50;4088481;28;20092;-71
2022/01/17 03:01:36;;;;;;;9.45;6.53;;;;;;;2.49;99.26;99459.13;4088782;28;20109;-72
2022/01/17 03:03:37;;;;;;;10.55;7.18;;;;;;;2.43;100.00;99448.59;4093299;28;20053;-72
2022/01/17 03:05:39;;;;;;;12.23;7.43;;;;;;;2.50;100.00;99436.16;4088395;28;20047;-72
2022/01/17 03:07:39;;;;;;;11.23;6.77;;;;;;;2.45;100.00;99432.69;4087607;28;20047;-71
2022/01/17 03:09:50;;;;;;;9.02;6.45;;;;;;;2.42;100.00;99431.38;4095263;28;20041;-71
2022/01/17 03:11:50;;;;;;;8.85;6.03;;;;;;;2.38;99.80;99427.63;4093638;28;20069;-71
2022/01/17 03:13:51;;;;;;;8.00;6.00;;;;;;;2.42;99.33;99445.03;4087872;28;20085;-71
2022/01/17 03:15:57;;;;;;;7.22;5.63;;;;;;;2.40;99.07;99427.31;4087650;28;20057;-71
2022/01/17 03:17:58;;;;;;;8.90;5.70;;;;;;;2.51;97.77;99434.22;4086434;28;20047;-71
2022/01/17 03:19:58;;;;;;;8.32;5.50;;;;;;;2.48;97.76;99434.81;4087939;28;20498;-71
2022/01/17 03:21:58;;;;;;;9.07;5.65;;;;;;;2.50;97.78;99441.63;4087733;28;20051;-71
2022/01/17 03:23:59;;;;;;;9.80;5.30;;;;;;;2.48;97.26;99446.59;4088059;28;20130;-71
2022/01/17 03:25:59;;;;;;;8.63;5.22;;;;;;;2.51;96.73;99454.16;4088185;28;20134;-72
2022/01/17 03:28:00;;;;;;;7.68;5.43;;;;;;;2.53;95.79;99451.94;4090244;28;20046;-72
2022/01/17 03:30:01;;;;;;;8.27;5.22;;;;;;;2.53;96.20;99445.66;4093561;28;20064;-72
2022/01/17 03:32:01;;;;;;;7.85;5.30;;;;;;;2.63;95.44;99463.78;4091936;28;20035;-72
2022/01/17 03:34:02;;;;;;;9.57;5.60;;;;;;;2.66;94.55;99455.00;4089421;28;20041;-72
2022/01/17 03:36:04;;;;;;;9.07;4.97;;;;;;;2.68;94.13;99458.25;4088209;28;20108;-71
2022/01/17 03:38:06;;;;;;;8.70;5.38;;;;;;;2.66;94.36;99444.88;4087600;28;20527;-71
2022/01/17 03:40:07;;;;;;;;;;;;;;;2.70;94.00;99439.59;4090103;28;20032;-71
2022/01/17 03:42:08;;;;;;;10.55;5.40;;;;;;;2.74;93.78;99446.09;4087420;28;19925;-71
2022/01/17 03:44:08;;;;;;;7.03;4.38;;;;;;;2.81;92.82;99449.22;4087441;28;20399;-71
2022/01/17 03:46:08;;;;;;;8.02;4.88;;;;;;;2.76;93.60;99460.28;4088165;28;20043;-71
2022/01/17 03:48:09;;;;;;;10.35;5.30;;;;;;;2.79;92.71;99451.44;4087121;28;20081;-71
2022/01/17 03:50:14;;;;;;;10.07;5.68;;;;;;;2.80;93.20;99453.06;4090256;28;20039;-71
2022/01/17 03:52:14;;;;;;;9.05;5.35;;;;;;;2.73;93.71;99449.94;4088696;28;20047;-71
2022/01/17 03:54:15;;;;;;;9.32;5.68;;;;;;;2.75;93.88;99456.72;4087347;28;20070;-71
2022/01/17 03:56:18;;;;;;;7.63;5.10;;;;;;;2.73;94.06;99449.94;4093643;28;20031;-71
2022/01/17 03:58:19;;;;;;;7.43;5.47;;;;;;;2.70;94.19;99450.53;4091352;28;20039;-71
2022/01/17 04:00:29;;;;;;;10.40;6.20;;;;;;;2.69;94.34;99459.84;4089887;28;20062;-71
2022/01/17 04:02:30;;;;;;;8.30;5.57;;;;;;;2.69;93.87;99454.38;4090090;28;20438;-71
2022/01/17 04:04:30;;;;;;;6.97;4.47;;;;;;;2.68;93.47;99425.44;4094642;28;20051;-71
2022/01/17 04:06:30;;;;;;;8.23;4.63;;;;;;;2.73;92.58;99417.13;4089937;28;20082;-71
2022/01/17 04:08:31;;;;;;;8.85;4.90;;;;;;;2.73;91.86;99412.50;4092797;28;20043;-71
2022/01/17 04:10:32;;;;;;;7.55;4.45;;;;;;;2.67;91.76;99410.97;4094398;28;20051;-71
2022/01/17 04:12:32;;;;;;;6.25;4.22;;;;;;;2.67;91.43;99423.84;4090645;28;20137;-71
2022/01/17 04:14:35;;;;;;;4.30;3.58;;;;;;;2.67;89.79;99426.56;4090550;28;20043;-71
2022/01/17 04:16:36;;;;;;;5.03;3.42;;;;;;;2.70;89.23;99412.28;4089291;28;20051;-71
2022/01/17 04:18:36;;;;;;;5.05;3.13;;;;;;;2.75;88.88;99426.66;4090928;28;20411;-72
2022/01/17 04:20:38;;;;;;;4.75;3.47;;;;;;;2.71;89.13;99430.28;4089845;28;20102;-71
2022/01/17 04:22:49;;;;;;;5.65;3.38;;;;;;;2.76;87.88;99452.06;4090244;28;20050;-71
2022/01/17 04:24:49;;;;;;;6.70;2.95;;;;;;;2.81;87.28;99455.53;4090323;28;20483;-71
2022/01/17 04:26:50;;;;;;;6.13;3.25;;;;;;;2.86;86.18;99449.13;4092146;28;20066;-71
2022/01/17 04:28:51;;;;;;;4.43;2.95;;;;;;;2.81;86.77;99461.00;4090727;28;20146;-72
2022/01/17 04:30:51;;;;;;;9.02;3.17;;;;;;;2.79;86.79;99449.53;4090183;28;20047;-71
2022/01/17 04:32:51;;;;;;;5.13;3.10;;;;;;;2.80;86.95;99461.28;4089310;28;20044;-71
2022/01/17 04:34:52;;;;;;;8.38;3.80;;;;;;;2.73;87.55;99461.69;4091895;28;20541;-71
2022/01/17 04:36:52;;;;;;;4.65;3.22;;;;;;;2.74;87.91;99465.25;4089074;28;20996;-71
2022/01/17 04:38:52;;;;;;;7.00;3.72;;;;;;;2.71;88.14;99455.69;4089691;28;20491;-71
2022/01/17 04:41:02;;;;;;;8.60;3.63;;;;;;;2.63;89.23;99440.00;4089864;28;20130;-71
2022/01/17 04:43:14;;;;;;;6.88;3.75;;;;;;;2.69;89.19;99454.38;4094289;28;20043;-71
2022/01/17 04:45:17;;;;;;;7.03;3.30;;;;;;;2.74;88.64;99448.84;4090209;28;20085;-71
2022/01/17 04:47:17;;;;;;;5.90;3.40;;;;;;;2.67;89.78;99445.69;4093041;28;20047;-71
2022/01/17 04:49:18;;;;;;;9.55;4.50;;;;;;;2.69;89.56;99432.53;4089788;28;20343;-71
2022/01/17 04:51:18;;;;;;;7.95;3.58;;;;;;;2.72;89.64;99445.56;4091067;28;20808;-71
2022/01/17 04:53:20;;;;;;;7.85;4.13;;;;;;;2.73;89.66;99439.84;4089025;28;20493;-71
2022/01/17 04:55:22;;;;;;;9.85;4.75;;;;;;;2.78;89.07;99436.16;4089774;28;20059;-72
2022/01/17 04:57:22;;;;;;;10.32;5.07;;;;;;;2.83;88.66;99438.00;4089150;28;20197;-72
2022/01/17 04:59:22;;;;;;;7.95;5.18;;;;;;;2.89;88.33;99431.31;4090079;28;20079;-72
2022/01/17 05:01:23;;;;;;;7.65;5.05;;;;;;;2.89;88.39;99420.38;4098491;28;20043;-72
2022/01/17 05:03:25;;;;;;;11.32;5.18;;;;;;;2.87;88.54;99417.94;4093451;28;20526;-72
2022/01/17 05:05:25;;;;;;;10.73;6.38;;;;;;;2.88;88.63;99424.22;4091691;28;20043;-72
2022/01/17 05:07:25;;;;;;;11.48;5.25;;;;;;;2.81;89.27;99436.41;4087590;28;20539;-72
2022/01/17 05:09:26;;;;;;;17.92;4.85;;;;;;;2.91;87.77;99442.78;4092016;28;20399;-71
2022/01/17 05:11:29;;;;;;;11.30;5.00;;;;;;;2.92;87.64;99437.00;4092891;28;20491;-71
2022/01/17 05:13:33;;;;;;;9.05;4.45;;;;;;;2.90;87.43;99432.94;4101246;28;20039;-72
2022/01/17 05:15:44;;;;;;;10.10;4.88;;;;;;;2.93;87.37;99430.41;4094757;28;20370;-72
2022/01/17 05:17:58;;;;;;;9.15;4.80;;;;;;;2.94;86.84;99423.81;4093351;28;20047;-72
2022/01/17 05:19:58;;;;;;;10.38;5.22;;;;;;;2.94;86.91;99426.56;4093233;28;20120;-72
2022/01/17 05:21:59;;;;;;;10.88;5.85;;;;;;;2.94;86.87;99431.22;4088935;28;20305;-72
2022/01/17 05:23:59;;;;;;;11.23;5.75;;;;;;;2.85;87.24;99428.38;4096723;28;20375;-72
2022/01/17 05:26:00;;;;;;;13.32;5.80;;;;;;;2.79;88.07;99416.72;4090027;28;20038;-71
2022/01/17 05:28:00;;;;;;;10.98;7.13;;;;;;;2.78;88.62;99420.59;4090916;28;20480;-71
2022/01/17 05:30:03;;;;;;;12.07;7.40;;;;;;;2.79;89.13;99427.66;4091817;28;20558;-71
2022/01/17 05:32:04;;;;;;;13.57;7.53;;;;;;;2.85;89.18;99458.44;4092941;28;20064;-71
2022/01/17 05:34:05;;;;;;;13.05;6.30;;;;;;;2.81;89.32;99469.19;4091295;28;20039;-71
2022/01/17 05:36:05;;;;;;;10.63;6.15;;;;;;;2.87;88.42;99472.63;4091652;28;20058;-72
2022/01/17 05:38:05;;;;;;;14.13;7.28;;;;;;;2.88;88.92;99481.63;4091474;28;20449;-72
2022/01/17 05:40:08;;;;;;;11.52;6.78;;;;;;;2.90;89.02;99499.38;4090061;28;20045;-71
2022/01/17 05:42:14;;;;;;;14.27;7.38;;;;;;;2.82;89.63;99497.34;4093920;28;20031;-71
2022/01/17 05:44:14;;;;;;;12.52;6.82;;;;;;;2.83;89.72;99509.88;4091911;28;20033;-71
2022/01/17 05:46:15;;;;;;;10.90;6.88;;;;;;;2.87;89.59;99501.88;4093525;28;20114;-72
2022/01/17 05:48:15;;;;;;;15.68;8.35;;;;;;;2.88;89.31;99489.81;4090164;28;20403;-72
2022/01/17 05:50:16;;;;;;;15.30;8.00;;;;;;;2.86;89.23;99498.34;4093034;28;20119;-72
2022/01/17 05:52:16;;;;;;;13.27;7.32;;;;;;;2.90;89.59;99495.81;4091069;28;20041;-72
2022/01/17 05:54:17;;;;;;;11.48;6.93;;;;;;;2.89;89.44;99510.56;4095610;28;20080;-72
2022/01/17 05:56:17;;;;;;;13.88;7.55;;;;;;;2.89;89.37;99500.44;4089151;28;20152;-72
2022/01/17 05:58:18;;;;;;;11.10;6.82;;;;;;;2.99;88.81;99497.53;4089612;28;20039;-72
2022/01/17 06:00:18;;;;;;;13.55;8.82;;;;;;;2.92;89.16;99486.19;4089118;28;20039;-71
2022/01/17 06:02:19;;;;;;;18.45;8.88;;;;;;;2.93;89.48;99474.16;4089522;28;20042;-71
2022/01/17 06:04:20;;;;;;;14.77;9.95;;;;;;;2.98;89.28;99478.69;4089808;28;20577;-71
2022/01/17 06:06:21;;;;;;;16.98;7.93;;;;;;;2.93;89.10;99473.34;4089422;28;20456;-71
2022/01/17 06:08:21;;;;;;;15.70;9.23;;;;;;;2.95;88.98;99462.91;4090153;28;20532;-71
2022/01/17 06:10:21;;;;;;;16.95;9.57;;;;;;;2.96;88.54;99462.59;4090552;28;20189;-71
2022/01/17 06:12:22;;;;;;;13.45;7.20;;;;;;;2.94;88.70;99466.75;4089503;28;20173;-71
2022/01/17 06:14:22;;;;;;;12.80;7.35;;;;;;;2.96;88.42;99469.97;4087785;28;20384;-71
2022/01/17 06:16:24;;;;;;;18.27;9.02;;;;;;;2.95;88.60;99457.44;4093238;28;20241;-71
2022/01/17 06:18:24;;;;;;;21.10;10.68;;;;;;;2.92;88.55;99458.88;4092508;28;20043;-71
2022/01/17 06:20:24;;;;;;;17.00;7.22;;;;;;;2.89;87.71;99475.03;4089350;28;20066;-71
2022/01/17 06:22:27;;;;;;;9.90;5.80;;;;;;;2.95;87.13;99477.38;4089382;28;21260;-71
2022/01/17 06:24:28;;;;;;;13.70;7.07;;;;;;;2.93;86.92;99479.63;4091263;28;20043;-71
2022/01/17 06:26:30;;;;;;;9.40;4.70;;;;;;;2.97;87.01;99477.06;4089158;28;20057;-71
2022/01/17 06:28:30;;;;;;;10.23;5.00;;;;;;;2.99;86.50;99485.81;4087594;28;20050;-71
2022/01/17 06:30:31;;;;;;;9.20;4.63;;;;;;;2.92;86.93;99482.66;4088967;28;20501;-71
2022/01/17 06:32:31;;;;;;;8.63;4.50;;;;;;;2.93;85.48;99482.34;4087893;28;20062;-71
2022/01/17 06:34:31;;;;;;;10.32;5.10;;;;;;;3.02;85.28;99487.91;4089467;28;20047;-71
2022/01/17 06:36:32;;;;;;;11.77;4.88;;;;;;;2.99;85.53;99502.22;4087831;28;20773;-71
2022/01/17 06:38:33;;;;;;;10.57;5.53;;;;;;;3.02;84.81;99471.50;4088940;28;20322;-71
2022/01/17 06:40:33;;;;;;;8.13;4.65;;;;;;;2.98;84.88;99468.59;4090940;28;20057;-71
2022/01/17 06:42:34;;;;;;;9.95;5.68;;;;;;;3.00;84.63;99460.09;4087851;28;20484;-71
2022/01/17 06:44:35;;;;;;;12.00;5.32;;;;;;;2.97;84.25;99466.94;4090013;28;20138;-71
2022/01/17 06:46:36;;;;;;;9.82;4.70;;;;;;;3.00;83.12;99457.34;4088565;28;20085;-71
2022/01/17 06:48:37;;;;;;;8.75;3.90;;;;;;;3.08;82.35;99464.84;4092565;28;20422;-71
2022/01/17 06:50:37;;;;;;;10.05;4.95;;;;;;;2.99;82.92;99467.47;4088456;28;20043;-71
2022/01/17 06:52:38;;;;;;;13.00;4.38;;;;;;;2.97;83.12;99480.63;4090965;28;20058;-71
2022/01/17 06:54:38;;;;;;;7.07;4.28;;;;;;;2.98;82.72;99478.69;4089896;28;20053;-71
2022/01/17 06:56:43;;;;;;;9.70;3.97;;;;;;;2.98;82.32;99490.47;4094428;28;20130;-71
2022/01/17 06:58:44;;;;;;;7.53;3.40;;;;;;;2.99;82.12;99485.81;4111783;28;20044;-71
2022/01/17 07:00:45;;;;;;;8.25;4.10;;;;;;;2.99;82.03;99489.34;4105067;28;20146;-71
2022/01/17 07:02:45;;;;;;;8.02;3.72;;;;;;;2.97;82.40;99507.94;4092403;28;20408;-71
2022/01/17 07:04:46;;;;;;;15.02;4.75;;;;;;;3.09;81.23;99491.88;4092831;28;20254;-71
2022/01/17 07:06:46;;;;;;;12.88;5.28;;;;;;;3.04;81.83;99522.03;4088447;28;20051;-71
2022/01/17 07:08:46;;;;;;;6.25;3.40;;;;;;;3.09;81.64;99521.94;4087981;28;20050;-71
2022/01/17 07:10:47;;;;;;;10.90;4.63;;;;;;;2.99;82.17;99530.34;4088287;28;20043;-71
2022/01/17 07:12:47;;;;;;;11.20;3.67;;;;;;;3.02;82.34;99542.59;4089054;28;20165;-71
2022/01/17 07:14:48;;;;;;;8.20;3.95;;;;;;;3.04;81.69;99546.63;4090147;28;20092;-71
2022/01/17 07:16:48;;;;;;;8.52;4.10;;;;;;;2.97;82.52;99559.09;4087601;28;20445;-71
2022/01/17 07:18:48;;;;;;;8.05;3.95;;;;;;;2.96;82.31;99561.00;4088484;28;20068;-71
2022/01/17 07:20:49;;;;;;;8.40;4.50;;;;;;;3.04;82.05;99575.91;4087996;28;20074;-71
2022/01/17 07:22:49;;;;;;;7.80;4.40;;;;;;;2.95;82.82;99564.06;4088808;28;20552;-71
2022/01/17 07:24:49;;;;;;;13.85;6.13;;;;;;;3.00;82.00;99542.09;4088895;28;20368;-71
2022/01/17 07:26:50;;;;;;;14.63;4.53;;;;;;;3.03;81.62;99531.34;4170037;28;20364;-71
2022/01/17 07:28:50;;;;;;;14.13;5.13;;;;;;;2.99;81.79;99526.81;4087657;28;20078;-71
2022/01/17 07:30:50;;;;;;;13.43;4.93;;;;;;;3.00;81.96;99528.44;4087685;28;20039;-71
2022/01/17 07:32:51;;;;;;;12.85;4.75;;;;;;;2.96;82.14;99528.19;4089388;28;20857;-71
2022/01/17 07:34:52;;;;;;;16.40;5.78;;;;;;;2.99;82.16;99548.69;4091472;28;20126;-71
2022/01/17 07:36:53;;;;;;;10.02;4.85;;;;;;;2.97;82.04;99535.28;4087057;28;20574;-71
2022/01/17 07:38:53;;;;;;;13.55;3.70;;;;;;;3.02;82.06;99548.06;4088262;28;20043;-71
2022/01/17 07:40:53;;;;;;;6.47;3.20;;;;;;;3.14;80.93;99548.38;4091141;28;20579;-72
2022/01/17 07:42:54;;;;;;;7.88;3.95;;;;;;;3.05;81.78;99545.53;4087065;28;20051;-71
2022/01/17 07:44:56;;;;;;;11.75;3.60;;;;;;;3.01;81.61;99532.78;4088242;28;20051;-71
2022/01/17 07:47:00;;;;;;;12.55;4.15;;;;;;;3.00;82.39;99520.22;4087440;28;20051;-71
2022/01/17 07:49:16;;;;;;;9.18;3.70;;;;;;;3.01;81.94;99505.44;4090621;28;20043;-71
2022/01/17 07:51:16;;;;;;;10.40;4.22;;;;;;;2.98;82.19;99500.56;4093052;28;20515;-71
2022/01/17 07:53:17;;;;;;;11.00;4.50;;;;;;;3.04;81.73;99516.56;4087867;28;20165;-71
2022/01/17 07:55:19;;;;;;;11.30;4.35;;;;;;;3.01;81.71;99522.66;4087675;28;20390;-71
2022/01/17 07:57:20;;;;;;;12.75;4.10;;;;;;;3.04;81.38;99530.25;4089305;28;20062;-71
2022/01/17 07:59:20;;;;;;;11.18;4.57;;;;;;;3.07;81.62;99542.50;4090005;28;20596;-71
2022/01/17 08:01:21;;;;;;;11.57;4.07;;;;;;;3.04;81.87;99545.84;4088136;28;20487;-71
2022/01/17 08:03:21;;;;;;;10.50;3.83;;;;;;;3.05;81.36;99566.59;4089213;28;20502;-71
2022/01/17 08:05:22;;;;;;;11.52;4.00;;;;;;;3.11;81.20;99573.59;4087445;28;20047;-71
2022/01/17 08:07:22;;;;;;;8.48;3.88;;;;;;;3.00;82.20;99583.91;4088206;28;20054;-71
2022/01/17 08:09:32;;;;;;;8.73;3.85;;;;;;;2.99;81.80;99552.22;4090655;28;20047;-71
2022/01/17 08:11:33;;;;;;;9.70;3.80;;;;;;;3.02;82.02;99553.53;4090620;28;20510;-71
2022/01/17 08:13:34;;;;;;;8.52;5.07;;;;;;;3.04;81.83;99563.03;4088402;28;20061;-71
2022/01/17 08:15:34;;;;;;;7.85;3.97;;;;;;;3.11;81.25;99559.91;4087913;28;20509;-71
2022/01/17 08:17:35;;;;;;;8.43;4.18;;;;;;;3.06;81.39;99573.69;4086640;28;20050;-71
2022/01/17 08:19:35;;;;;;;8.27;4.30;;;;;;;3.10;81.61;99574.72;4086664;28;20043;-71
2022/01/17 08:21:35;;;;;;;10.32;4.22;;;;;;;3.03;82.33;99571.56;4088104;28;20051;-71
2022/01/17 08:23:36;;;;;;;12.98;4.78;;;;;;;3.05;82.26;99580.25;4087000;28;20053;-71
2022/01/17 08:25:37;;;;;;;10.57;4.30;;;;;;;3.01;82.81;99571.06;4088012;28;20047;-71
2022/01/17 08:27:37;;;;;;;7.72;4.07;;;;;;;3.01;82.97;99587.47;4092885;28;20047;-71
2022/01/17 08:29:37;;;;;;;14.43;5.50;;;;;;;3.01;82.61;99587.47;4086736;28;20138;-71
2022/01/17 08:31:39;;;;;;;12.15;4.50;;;;;;;3.07;82.83;99564.38;4089444;28;20047;-71
2022/01/17 08:33:39;;;;;;;9.98;4.85;;;;;;;3.06;82.92;99543.59;4091652;28;20055;-71
2022/01/17 08:35:40;;;;;;;9.25;4.75;;;;;;;3.08;82.46;99536.75;4087978;28;20051;-71
2022/01/17 08:37:40;;;;;;;11.75;6.15;;;;;;;3.07;82.62;99529.66;4092674;28;20100;-71
2022/01/17 08:39:40;;;;;;;14.10;5.32;;;;;;;3.03;82.49;99514.94;4089516;28;20051;-71
2022/01/17 08:41:42;;;;;;;9.90;4.82;;;;;;;3.07;82.88;99523.38;4089798;28;20047;-71
2022/01/17 08:43:43;;;;;;;14.10;6.05;;;;;;;3.05;82.72;99517.38;4090394;28;20483;-71
2022/01/17 08:45:43;;;;;;;12.65;7.25;;;;;;;3.00;83.41;99525.69;4091082;28;20079;-71
2022/01/17 08:47:46;;;;;;;7.35;4.20;;;;;;;3.02;82.56;99548.06;4090036;28;20334;-71
2022/01/17 08:49:48;;;;;;;16.98;5.75;;;;;;;3.04;82.82;99567.72;4090985;28;20047;-71
2022/01/17 08:51:48;;;;;;;11.35;5.50;;;;;;;3.04;82.03;99581.38;4089959;28;20097;-71
2022/01/17 08:53:49;;;;;;;10.30;4.53;;;;;;;2.98;82.39;99598.97;4090608;28;20079;-71
2022/01/17 08:55:49;;;;;;;9.90;4.18;;;;;;;3.00;81.66;99615.91;4093612;28;20169;-71
2022/01/17 08:57:51;;;;;;;13.77;4.25;;;;;;;3.07;80.83;99608.94;4092027;28;20495;-71
2022/01/17 08:59:52;;;;;;;8.57;4.37;;;;;;;3.12;80.34;99615.41;4089749;28;20051;-71
2022/01/17 09:01:52;;;;;;;11.13;3.83;;;;;;;3.11;80.50;99631.03;4093340;28;20307;-71
2022/01/17 09:03:53;;;;;;;8.90;4.45;;;;;;;3.13;80.25;99625.25;4091908;28;20047;-71
2022/01/17 09:05:53;;;;;;;10.50;3.92;;;;;;;3.12;80.40;99629.09;4097385;28;20449;-71
2022/01/17 09:07:54;;;;;;;9.70;4.10;;;;;;;3.17;79.87;99639.94;4088864;28;20193;-71
2022/01/17 09:09:54;;;;;;;15.48;4.82;;;;;;;3.17;80.03;99627.09;4090770;28;20505;-71
2022/01/17 09:11:54;;;;;;;14.60;4.57;;;;;;;3.17;80.18;99624.34;4089871;28;20437;-71
2022/01/17 09:13:55;;;;;;;15.98;4.13;;;;;;;3.21;79.91;99614.41;4093159;28;20144;-71
2022/01/17 09:15:55;;;;;;;9.82;3.45;;;;;;;3.18;80.26;99582.22;4089114;28;20059;-71
2022/01/17 09:17:56;;;;;;;12.32;3.90;;;;;;;3.19;79.94;99585.75;4089535;28;20158;-71
2022/01/17 09:19:57;;;;;;;10.70;5.13;;;;;;;3.21;80.27;99567.94;4089674;28;20213;-71
2022/01/17 09:21:58;;;;;;;10.13;3.67;;;;;;;3.21;79.61;99572.59;4089981;28;20082;-71
2022/01/17 09:23:58;;;;;;;7.60;3.78;;;;;;;3.30;79.86;99573.50;4091817;28;20455;-71
2022/01/17 09:25:58;;;;;;;8.25;3.60;;;;;;;3.32;79.21;99576.75;4089801;28;20043;-71
2022/01/17 09:27:59;;;;;;;10.40;3.92;;;;;;;3.38;79.51;99578.25;4093353;28;20051;-71
2022/01/17 09:29:59;;;;;;;9.52;3.90;;;;;;;3.50;79.02;99561.38;4089583;28;20456;-71
2022/01/17 09:32:00;;;;;;;12.93;3.45;;;;;;;3.50;78.87;99573.13;4091001;28;20055;-71
2022/01/17 09:34:01;;;;;;;10.48;3.83;;;;;;;3.48;80.00;99574.53;4088618;28;20050;-71
2022/01/17 09:36:01;;;;;;;11.15;3.13;;;;;;;3.52;79.16;99576.34;4091976;28;20350;-71
2022/01/17 09:38:02;;;;;;;9.73;3.85;;;;;;;3.57;78.88;99573.53;4088434;28;20046;-71
2022/01/17 09:40:04;;;;;;;7.13;3.45;;;;;;;3.65;78.50;99572.81;4088477;28;20061;-71
2022/01/17 09:42:06;;;;;;;13.57;3.92;;;;;;;3.66;78.60;99582.63;4088869;28;20031;-71
2022/01/17 09:44:09;;;;;;;8.97;4.00;;;;;;;3.65;78.75;99575.53;4093321;28;20041;-71
2022/01/17 09:46:10;;;;;;;;;;;;;;;3.62;79.32;99561.63;4088976;28;20023;-71
2022/01/17 09:48:19;;;;;;;10.35;4.00;;;;;;;3.57;79.22;99559.03;4089014;28;19919;-71
2022/01/17 09:50:31;;;;;;;7.50;4.65;;;;;;;3.65;78.91;99559.13;4089426;28;20032;-71
2022/01/17 09:52:35;;;;;;;8.63;4.22;;;;;;;3.68;79.69;99538.53;4087889;28;20051;-71